createdAt,value
2023-04-30T00:00:36.986Z,96943.72
2023-04-30T00:01:38.996Z,96941.91
2023-04-30T00:02:40.888Z,96942.72
2023-04-30T00:03:42.972Z,96943.31
2023-04-30T00:04:45.080Z,96951.97
2023-04-30T00:05:50.266Z,96949.53
2023-04-30T00:06:52.138Z,96947.53
2023-04-30T00:07:54.040Z,96949.13
2023-04-30T00:08:55.944Z,96939.69
2023-04-30T00:09:58.181Z,96944.91
2023-04-30T00:11:00.019Z,96944.91
2023-04-30T00:12:02.037Z,96945.34
2023-04-30T00:13:03.881Z,96949.75
2023-04-30T00:14:05.709Z,96948.56
2023-04-30T00:15:07.860Z,96951.38
2023-04-30T00:16:10.010Z,96953.59
2023-04-30T00:17:11.864Z,96957.03
2023-04-30T00:18:13.751Z,96955.81
2023-04-30T00:19:15.694Z,96956.41
2023-04-30T00:20:18.203Z,96957.00
2023-04-30T00:21:20.111Z,96951.38
2023-04-30T00:22:22.055Z,96959.22
2023-04-30T00:23:23.885Z,96958.03
2023-04-30T00:24:25.728Z,96957.84
2023-04-30T00:25:27.594Z,96962.06
2023-04-30T00:26:29.423Z,96957.63
2023-04-30T00:27:32.212Z,96961.06
2023-04-30T00:28:34.058Z,96967.50
2023-04-30T00:29:36.029Z,96962.28
2023-04-30T00:30:37.888Z,96960.47
2023-04-30T00:31:39.832Z,96962.28
2023-04-30T00:32:41.722Z,96961.28
2023-04-30T00:33:43.636Z,96960.84
2023-04-30T00:34:46.260Z,96969.09
2023-04-30T00:35:48.087Z,96973.72
2023-04-30T00:36:49.971Z,96971.31
2023-04-30T00:37:51.821Z,96975.13
2023-04-30T00:38:53.786Z,96976.97
2023-04-30T00:39:55.827Z,96976.16
2023-04-30T00:40:57.916Z,96974.94
2023-04-30T00:41:59.776Z,96976.75
2023-04-30T00:43:01.822Z,96975.53
2023-04-30T00:44:03.695Z,96974.59
2023-04-30T00:45:05.847Z,96976.59
2023-04-30T00:46:07.758Z,96979.22
2023-04-30T00:47:09.629Z,96976.41
2023-04-30T00:48:11.626Z,96983.63
2023-04-30T00:49:13.701Z,96975.84
2023-04-30T00:50:16.377Z,96981.69
2023-04-30T00:51:18.415Z,96981.69
2023-04-30T00:52:20.300Z,96980.66
2023-04-30T00:53:22.320Z,96980.47
2023-04-30T00:54:24.885Z,96982.66
2023-04-30T00:55:27.105Z,96978.84
2023-04-30T00:56:29.412Z,96975.81
2023-04-30T00:57:31.415Z,96982.25
2023-04-30T00:58:33.871Z,96978.66
2023-04-30T00:59:35.919Z,96976.03
2023-04-30T01:00:37.721Z,96981.69
2023-04-30T01:01:39.961Z,96982.66
2023-04-30T01:02:41.903Z,96986.69
2023-04-30T01:03:43.999Z,96984.88
2023-04-30T01:04:46.850Z,96981.28
2023-04-30T01:05:48.824Z,96981.31
2023-04-30T01:06:50.850Z,96980.47
2023-04-30T01:07:54.304Z,96984.91
2023-04-30T01:08:57.618Z,96978.09
2023-04-30T01:09:59.621Z,96981.69
2023-04-30T01:11:13.832Z,96985.72
2023-04-30T01:12:21.779Z,96984.50
2023-04-30T01:13:30.489Z,96991.34
2023-04-30T01:14:38.463Z,96988.16
2023-04-30T01:15:46.654Z,96988.75
2023-04-30T01:17:06.228Z,96981.28
2023-04-30T01:18:19.152Z,96990.31
2023-04-30T01:19:29.795Z,96990.72
2023-04-30T01:20:32.567Z,96991.72
2023-04-30T01:21:36.855Z,96990.09
2023-04-30T01:22:58.897Z,96996.56
2023-04-30T01:24:16.367Z,96994.56
2023-04-30T01:25:18.307Z,96998.56
2023-04-30T01:26:26.317Z,96988.91
2023-04-30T01:27:46.970Z,96992.16
2023-04-30T01:28:50.634Z,96993.53
2023-04-30T01:29:53.763Z,96993.16
2023-04-30T01:30:56.131Z,96996.34
2023-04-30T01:31:58.008Z,96993.31
2023-04-30T01:33:00.077Z,97000.38
2023-04-30T01:34:01.956Z,97001.38
2023-04-30T01:35:03.926Z,97000.78
2023-04-30T01:36:09.132Z,97009.00
2023-04-30T01:37:43.887Z,97001.38
2023-04-30T01:38:52.803Z,97000.16
2023-04-30T01:40:02.429Z,96996.34
2023-04-30T01:41:19.749Z,96999.34
2023-04-30T01:42:22.698Z,97007.78
2023-04-30T01:43:53.532Z,97010.19
2023-04-30T01:45:01.241Z,97005.38
2023-04-30T01:46:03.146Z,97014.00
2023-04-30T01:47:06.865Z,97008.97
2023-04-30T01:48:19.158Z,97011.19
2023-04-30T01:49:43.006Z,97014.63
2023-04-30T01:50:49.740Z,97014.63
2023-04-30T01:51:56.320Z,97014.63
2023-04-30T01:53:02.503Z,97012.63
2023-04-30T01:54:09.522Z,97012.38
2023-04-30T01:55:16.930Z,97014.41
2023-04-30T01:56:21.943Z,97014.00
2023-04-30T01:57:32.748Z,97013.00
2023-04-30T01:58:35.867Z,97014.22
2023-04-30T01:59:39.496Z,97015.22
2023-04-30T02:00:41.689Z,97011.63
2023-04-30T02:01:43.550Z,97020.44
2023-04-30T02:02:45.747Z,97020.44
2023-04-30T02:03:47.730Z,97017.03
2023-04-30T02:04:49.987Z,97022.25
2023-04-30T02:05:51.785Z,97017.22
2023-04-30T02:06:53.737Z,97030.91
2023-04-30T02:07:55.652Z,97030.69
2023-04-30T02:09:02.745Z,97033.13
2023-04-30T02:10:05.415Z,97037.31
2023-04-30T02:11:07.221Z,97037.31
2023-04-30T02:12:09.089Z,97044.97
2023-04-30T02:13:11.034Z,97052.19
2023-04-30T02:14:12.845Z,97056.44
2023-04-30T02:15:15.489Z,97056.44
2023-04-30T02:16:17.394Z,97053.59
2023-04-30T02:17:19.303Z,97056.00
2023-04-30T02:18:21.261Z,97050.00
2023-04-30T02:19:23.118Z,97043.56
2023-04-30T02:20:25.097Z,97040.34
2023-04-30T02:21:27.629Z,97040.75
2023-04-30T02:22:29.502Z,97036.53
2023-04-30T02:23:31.304Z,97043.56
2023-04-30T02:24:33.180Z,97041.97
2023-04-30T02:25:38.134Z,97050.00
2023-04-30T02:26:39.958Z,97044.78
2023-04-30T02:27:41.914Z,97054.44
2023-04-30T02:28:43.801Z,97050.78
2023-04-30T02:29:45.734Z,97055.03
2023-04-30T02:30:47.593Z,97053.22
2023-04-30T02:31:49.562Z,97058.25
2023-04-30T02:32:51.436Z,97054.41
2023-04-30T02:33:53.538Z,97057.81
2023-04-30T02:34:55.425Z,97065.66
2023-04-30T02:35:58.682Z,97064.66
2023-04-30T02:37:01.171Z,97065.47
2023-04-30T02:38:03.024Z,97056.84
2023-04-30T02:39:05.234Z,97064.88
2023-04-30T02:40:07.586Z,97058.84
2023-04-30T02:41:09.517Z,97068.28
2023-04-30T02:42:11.474Z,97062.25
2023-04-30T02:43:13.242Z,97070.09
2023-04-30T02:44:15.113Z,97064.88
2023-04-30T02:45:16.931Z,97066.88
2023-04-30T02:46:19.495Z,97070.28
2023-04-30T02:47:21.515Z,97066.88
2023-04-30T02:48:23.349Z,97071.69
2023-04-30T02:49:25.152Z,97066.69
2023-04-30T02:50:27.017Z,97067.88
2023-04-30T02:51:29.005Z,97068.09
2023-04-30T02:52:30.827Z,97064.91
2023-04-30T02:53:32.684Z,97068.91
2023-04-30T02:54:34.481Z,97069.91
2023-04-30T02:55:36.471Z,97077.75
2023-04-30T02:56:39.698Z,97080.56
2023-04-30T02:57:41.768Z,97073.72
2023-04-30T02:58:43.684Z,97080.16
2023-04-30T02:59:46.531Z,97083.78
2023-04-30T03:00:48.444Z,97079.34
2023-04-30T03:01:50.438Z,97075.75
2023-04-30T03:02:52.474Z,97070.53
2023-04-30T03:03:54.479Z,97074.94
2023-04-30T03:04:56.331Z,97084.97
2023-04-30T03:05:59.769Z,97082.97
2023-04-30T03:07:01.801Z,97086.38
2023-04-30T03:08:03.666Z,97085.59
2023-04-30T03:09:05.628Z,97081.75
2023-04-30T03:10:07.931Z,97082.56
2023-04-30T03:11:09.793Z,97087.19
2023-04-30T03:12:11.757Z,97086.16
2023-04-30T03:13:13.814Z,97084.56
2023-04-30T03:14:16.192Z,97083.78
2023-04-30T03:15:18.097Z,97093.22
2023-04-30T03:16:21.099Z,97093.00
2023-04-30T03:17:25.078Z,97088.78
2023-04-30T03:18:29.993Z,97086.59
2023-04-30T03:19:32.324Z,97090.19
2023-04-30T03:20:34.186Z,97089.81
2023-04-30T03:21:36.232Z,97091.00
2023-04-30T03:22:38.098Z,97085.56
2023-04-30T03:23:40.012Z,97089.59
2023-04-30T03:24:42.118Z,97084.97
2023-04-30T03:25:44.408Z,97087.19
2023-04-30T03:26:46.674Z,97088.59
2023-04-30T03:27:48.793Z,97091.81
2023-04-30T03:28:50.761Z,97093.44
2023-04-30T03:29:52.847Z,97088.59
2023-04-30T03:30:55.022Z,97091.81
2023-04-30T03:31:56.982Z,97093.41
2023-04-30T03:32:58.932Z,97088.19
2023-04-30T03:34:00.846Z,97088.78
2023-04-30T03:35:02.793Z,97093.03
2023-04-30T03:36:04.857Z,97092.44
2023-04-30T03:37:06.746Z,97091.00
2023-04-30T03:38:08.622Z,97086.78
2023-04-30T03:39:10.543Z,97097.44
2023-04-30T03:40:12.610Z,97092.22
2023-04-30T03:41:14.467Z,97100.66
2023-04-30T03:42:16.355Z,97097.03
2023-04-30T03:43:18.229Z,97094.44
2023-04-30T03:44:20.132Z,97098.03
2023-04-30T03:45:21.972Z,97102.47
2023-04-30T03:46:23.902Z,97092.22
2023-04-30T03:47:25.855Z,97099.84
2023-04-30T03:48:27.815Z,97097.44
2023-04-30T03:49:29.721Z,97099.06
2023-04-30T03:50:31.585Z,97095.44
2023-04-30T03:51:33.426Z,97100.66
2023-04-30T03:52:36.995Z,97105.88
2023-04-30T03:53:38.907Z,97108.06
2023-04-30T03:54:40.929Z,97103.06
2023-04-30T03:55:42.955Z,97107.28
2023-04-30T03:56:44.847Z,97113.09
2023-04-30T03:57:46.742Z,97106.28
2023-04-30T03:58:48.713Z,97109.69
2023-04-30T03:59:50.980Z,97101.88
2023-04-30T04:00:52.981Z,97107.69
2023-04-30T04:01:54.827Z,97104.28
2023-04-30T04:02:58.110Z,97105.88
2023-04-30T04:04:00.058Z,97108.47
2023-04-30T04:05:02.235Z,97110.09
2023-04-30T04:06:05.281Z,97110.09
2023-04-30T04:07:10.107Z,97112.72
2023-04-30T04:08:11.932Z,97114.50
2023-04-30T04:09:13.926Z,97108.28
2023-04-30T04:10:15.858Z,97114.31
2023-04-30T04:11:17.692Z,97110.69
2023-04-30T04:12:19.522Z,97125.16
2023-04-30T04:13:21.484Z,97114.91
2023-04-30T04:14:23.458Z,97124.34
2023-04-30T04:15:25.310Z,97125.16
2023-04-30T04:16:27.257Z,97120.13
2023-04-30T04:17:29.218Z,97130.56
2023-04-30T04:18:31.168Z,97121.94
2023-04-30T04:19:33.099Z,97124.34
2023-04-30T04:20:34.991Z,97130.19
2023-04-30T04:21:37.140Z,97127.56
2023-04-30T04:22:38.956Z,97130.19
2023-04-30T04:23:40.828Z,97127.56
2023-04-30T04:24:42.790Z,97133.59
2023-04-30T04:25:44.649Z,97138.00
2023-04-30T04:26:48.121Z,97134.00
2023-04-30T04:27:50.082Z,97129.16
2023-04-30T04:28:52.310Z,97137.00
2023-04-30T04:29:55.369Z,97138.63
2023-04-30T04:30:57.959Z,97134.00
2023-04-30T04:32:03.317Z,97136.41
2023-04-30T04:33:06.344Z,97138.81
2023-04-30T04:34:08.704Z,97138.63
2023-04-30T04:35:10.619Z,97139.22
2023-04-30T04:36:12.471Z,97139.22
2023-04-30T04:37:14.533Z,97139.22
2023-04-30T04:38:16.419Z,97144.44
2023-04-30T04:39:18.277Z,97140.84
2023-04-30T04:40:20.097Z,97151.06
2023-04-30T04:41:23.318Z,97150.88
2023-04-30T04:42:25.186Z,97142.84
2023-04-30T04:43:27.157Z,97148.88
2023-04-30T04:44:29.543Z,97145.66
2023-04-30T04:45:32.233Z,97149.66
2023-04-30T04:46:38.788Z,97142.06
2023-04-30T04:47:40.712Z,97147.06
2023-04-30T04:48:43.281Z,97150.50
2023-04-30T04:49:45.182Z,97148.88
2023-04-30T04:50:47.065Z,97150.50
2023-04-30T04:51:48.978Z,97150.28
2023-04-30T04:52:50.816Z,97155.31
2023-04-30T04:53:52.685Z,97150.09
2023-04-30T04:54:54.568Z,97149.09
2023-04-30T04:55:57.131Z,97143.88
2023-04-30T04:56:59.082Z,97157.91
2023-04-30T04:58:01.073Z,97155.72
2023-04-30T04:59:03.035Z,97149.47
2023-04-30T05:00:08.239Z,97155.50
2023-04-30T05:01:10.762Z,97147.66
2023-04-30T05:02:12.655Z,97152.69
2023-04-30T05:03:15.316Z,97149.28
2023-04-30T05:04:17.228Z,97151.69
2023-04-30T05:05:19.139Z,97160.13
2023-04-30T05:06:21.130Z,97162.53
2023-04-30T05:07:23.074Z,97166.56
2023-04-30T05:08:25.137Z,97162.34
2023-04-30T05:09:26.987Z,97163.34
2023-04-30T05:10:28.884Z,97164.53
2023-04-30T05:11:30.844Z,97164.53
2023-04-30T05:12:32.842Z,97159.31
2023-04-30T05:13:34.692Z,97155.72
2023-04-30T05:14:37.680Z,97151.28
2023-04-30T05:15:39.524Z,97157.13
2023-04-30T05:16:41.510Z,97157.31
2023-04-30T05:17:43.557Z,97150.50
2023-04-30T05:18:45.393Z,97155.72
2023-04-30T05:19:49.310Z,97161.56
2023-04-30T05:20:51.195Z,97159.53
2023-04-30T05:21:53.146Z,97157.31
2023-04-30T05:22:55.122Z,97158.75
2023-04-30T05:23:57.008Z,97165.56
2023-04-30T05:24:58.791Z,97155.72
2023-04-30T05:26:00.778Z,97157.34
2023-04-30T05:27:05.894Z,97156.91
2023-04-30T05:28:07.792Z,97161.75
2023-04-30T05:29:10.842Z,97157.31
2023-04-30T05:30:12.815Z,97168.19
2023-04-30T05:31:14.690Z,97163.75
2023-04-30T05:32:16.725Z,97166.38
2023-04-30T05:33:18.663Z,97172.63
2023-04-30T05:34:20.473Z,97165.97
2023-04-30T05:35:22.393Z,97173.00
2023-04-30T05:36:24.293Z,97171.78
2023-04-30T05:37:26.203Z,97170.78
2023-04-30T05:38:28.393Z,97171.59
2023-04-30T05:39:30.220Z,97172.22
2023-04-30T05:40:32.375Z,97171.19
2023-04-30T05:41:34.242Z,97170.59
2023-04-30T05:42:36.658Z,97174.81
2023-04-30T05:43:38.604Z,97170.38
2023-04-30T05:44:41.403Z,97173.00
2023-04-30T05:45:43.388Z,97177.03
2023-04-30T05:46:45.295Z,97166.16
2023-04-30T05:47:47.239Z,97162.56
2023-04-30T05:48:49.181Z,97167.97
2023-04-30T05:49:51.102Z,97164.38
2023-04-30T05:50:52.925Z,97171.00
2023-04-30T05:51:54.750Z,97168.19
2023-04-30T05:52:56.644Z,97176.41
2023-04-30T05:53:58.581Z,97169.59
2023-04-30T05:55:00.445Z,97171.41
2023-04-30T05:56:02.585Z,97179.84
2023-04-30T05:57:04.566Z,97173.81
2023-04-30T05:58:06.777Z,97172.63
2023-04-30T05:59:08.661Z,97178.66
2023-04-30T06:00:11.167Z,97177.44
2023-04-30T06:01:13.137Z,97176.63
2023-04-30T06:02:15.301Z,97176.03
2023-04-30T06:03:17.314Z,97181.84
2023-04-30T06:04:19.224Z,97180.22
2023-04-30T06:05:21.222Z,97177.44
2023-04-30T06:06:23.152Z,97175.00
2023-04-30T06:07:25.053Z,97178.22
2023-04-30T06:08:26.854Z,97177.03
2023-04-30T06:09:28.785Z,97179.06
2023-04-30T06:10:31.133Z,97173.81
2023-04-30T06:11:33.024Z,97175.41
2023-04-30T06:12:34.926Z,97173.00
2023-04-30T06:13:36.978Z,97177.03
2023-04-30T06:14:38.974Z,97174.19
2023-04-30T06:15:42.029Z,97166.16
2023-04-30T06:16:45.431Z,97171.00
2023-04-30T06:17:47.395Z,97170.19
2023-04-30T06:18:50.363Z,97163.34
2023-04-30T06:19:53.406Z,97167.56
2023-04-30T06:20:55.434Z,97164.94
2023-04-30T06:21:57.295Z,97164.56
2023-04-30T06:23:00.331Z,97166.97
2023-04-30T06:24:02.148Z,97166.75
2023-04-30T06:25:04.181Z,97161.34
2023-04-30T06:26:06.096Z,97169.78
2023-04-30T06:27:08.008Z,97166.97
2023-04-30T06:28:10.336Z,97168.56
2023-04-30T06:29:12.212Z,97172.19
2023-04-30T06:30:14.106Z,97173.19
2023-04-30T06:31:16.225Z,97165.94
2023-04-30T06:32:18.141Z,97173.00
2023-04-30T06:33:20.125Z,97165.75
2023-04-30T06:34:22.086Z,97169.78
2023-04-30T06:35:24.781Z,97167.78
2023-04-30T06:36:26.661Z,97165.75
2023-04-30T06:37:28.614Z,97168.97
2023-04-30T06:38:30.408Z,97168.97
2023-04-30T06:39:32.248Z,97170.41
2023-04-30T06:40:34.262Z,97168.59
2023-04-30T06:41:36.223Z,97184.50
2023-04-30T06:42:38.100Z,97178.22
2023-04-30T06:43:39.956Z,97171.00
2023-04-30T06:44:41.829Z,97173.59
2023-04-30T06:45:43.941Z,97177.00
2023-04-30T06:46:45.968Z,97185.69
2023-04-30T06:47:48.163Z,97184.06
2023-04-30T06:48:50.085Z,97179.44
2023-04-30T06:49:51.892Z,97181.06
2023-04-30T06:50:53.726Z,97181.66
2023-04-30T06:51:56.907Z,97189.50
2023-04-30T06:52:58.806Z,97189.69
2023-04-30T06:54:01.087Z,97189.09
2023-04-30T06:55:03.051Z,97187.69
2023-04-30T06:56:05.028Z,97187.47
2023-04-30T06:57:07.427Z,97187.47
2023-04-30T06:58:09.325Z,97193.53
2023-04-30T06:59:11.090Z,97196.75
2023-04-30T07:00:15.403Z,97199.97
2023-04-30T07:01:17.888Z,97195.34
2023-04-30T07:02:21.945Z,97194.31
2023-04-30T07:03:24.358Z,97193.09
2023-04-30T07:04:26.561Z,97194.91
2023-04-30T07:05:28.782Z,97201.75
2023-04-30T07:06:30.933Z,97192.28
2023-04-30T07:07:32.969Z,97193.91
2023-04-30T07:08:34.795Z,97197.13
2023-04-30T07:09:36.806Z,97195.91
2023-04-30T07:10:38.675Z,97194.69
2023-04-30T07:11:40.567Z,97195.28
2023-04-30T07:12:42.581Z,97191.47
2023-04-30T07:13:44.725Z,97191.09
2023-04-30T07:14:46.605Z,97193.09
2023-04-30T07:15:48.548Z,97187.28
2023-04-30T07:16:51.092Z,97191.91
2023-04-30T07:17:53.091Z,97194.91
2023-04-30T07:18:55.012Z,97191.88
2023-04-30T07:19:57.189Z,97192.91
2023-04-30T07:20:59.347Z,97194.91
2023-04-30T07:22:01.447Z,97187.88
2023-04-30T07:23:03.495Z,97194.50
2023-04-30T07:24:05.646Z,97190.06
2023-04-30T07:25:07.929Z,97197.50
2023-04-30T07:26:09.820Z,97190.88
2023-04-30T07:27:11.975Z,97187.47
2023-04-30T07:28:13.810Z,97195.72
2023-04-30T07:29:15.788Z,97191.91
2023-04-30T07:30:17.763Z,97201.53
2023-04-30T07:31:19.692Z,97193.28
2023-04-30T07:32:22.590Z,97198.50
2023-04-30T07:33:24.585Z,97201.50
2023-04-30T07:34:26.954Z,97199.09
2023-04-30T07:35:28.900Z,97204.13
2023-04-30T07:36:31.268Z,97201.28
2023-04-30T07:37:35.466Z,97202.91
2023-04-30T07:38:37.926Z,97200.69
2023-04-30T07:39:39.979Z,97195.84
2023-04-30T07:40:41.835Z,97199.06
2023-04-30T07:41:43.772Z,97205.88
2023-04-30T07:42:45.704Z,97199.06
2023-04-30T07:43:47.632Z,97203.06
2023-04-30T07:44:49.536Z,97202.63
2023-04-30T07:45:51.480Z,97206.44
2023-04-30T07:46:53.393Z,97205.84
2023-04-30T07:47:55.322Z,97209.84
2023-04-30T07:48:57.272Z,97202.16
2023-04-30T07:49:59.233Z,97207.41
2023-04-30T07:51:01.323Z,97207.41
2023-04-30T07:52:03.856Z,97205.38
2023-04-30T07:53:09.955Z,97203.97
2023-04-30T07:54:11.850Z,97205.38
2023-04-30T07:55:13.759Z,97202.56
2023-04-30T07:56:16.410Z,97205.78
2023-04-30T07:57:18.382Z,97197.69
2023-04-30T07:58:20.210Z,97212.56
2023-04-30T07:59:24.688Z,97202.47
2023-04-30T08:00:26.788Z,97208.69
2023-04-30T08:01:28.923Z,97211.91
2023-04-30T08:02:31.149Z,97209.44
2023-04-30T08:03:33.602Z,97213.06
2023-04-30T08:04:35.818Z,97213.06
2023-04-30T08:05:37.652Z,97210.03
2023-04-30T08:06:39.651Z,97208.00
2023-04-30T08:07:42.156Z,97202.56
2023-04-30T08:08:44.046Z,97208.38
2023-04-30T08:09:46.186Z,97211.59
2023-04-30T08:10:48.000Z,97205.75
2023-04-30T08:11:49.906Z,97209.97
2023-04-30T08:12:51.961Z,97206.13
2023-04-30T08:13:54.301Z,97207.72
2023-04-30T08:15:04.448Z,97209.34
2023-04-30T08:16:06.383Z,97209.50
2023-04-30T08:17:08.224Z,97216.72
2023-04-30T08:18:10.168Z,97209.03
2023-04-30T08:19:12.247Z,97207.81
2023-04-30T08:20:14.244Z,97214.66
2023-04-30T08:21:18.265Z,97215.06
2023-04-30T08:22:20.111Z,97205.34
2023-04-30T08:23:21.940Z,97213.22
2023-04-30T08:24:24.078Z,97213.03
2023-04-30T08:25:26.142Z,97206.75
2023-04-30T08:26:28.105Z,97209.38
2023-04-30T08:27:31.859Z,97210.75
2023-04-30T08:28:33.667Z,97208.31
2023-04-30T08:29:35.611Z,97210.47
2023-04-30T08:30:37.516Z,97207.44
2023-04-30T08:31:39.470Z,97209.03
2023-04-30T08:32:41.804Z,97204.38
2023-04-30T08:33:43.724Z,97206.00
2023-04-30T08:34:45.618Z,97206.81
2023-04-30T08:35:47.640Z,97206.19
2023-04-30T08:36:49.580Z,97208.34
2023-04-30T08:37:51.815Z,97206.38
2023-04-30T08:38:53.732Z,97207.63
2023-04-30T08:39:55.875Z,97202.97
2023-04-30T08:41:11.867Z,97204.56
2023-04-30T08:42:15.317Z,97204.50
2023-04-30T08:43:18.639Z,97206.69
2023-04-30T08:44:22.170Z,97203.88
2023-04-30T08:45:24.541Z,97206.50
2023-04-30T08:46:27.282Z,97215.38
2023-04-30T08:47:29.396Z,97209.91
2023-04-30T08:48:32.098Z,97207.50
2023-04-30T08:49:34.022Z,97210.31
2023-04-30T08:50:36.022Z,97216.97
2023-04-30T08:51:38.724Z,97205.66
2023-04-30T08:52:42.487Z,97213.78
2023-04-30T08:53:44.954Z,97214.78
2023-04-30T08:54:47.975Z,97215.22
2023-04-30T08:55:49.817Z,97221.09
2023-04-30T08:56:51.787Z,97209.81
2023-04-30T08:57:53.907Z,97214.84
2023-04-30T08:58:55.790Z,97222.06
2023-04-30T08:59:57.799Z,97218.63
2023-04-30T09:01:00.223Z,97212.34
2023-04-30T09:02:02.596Z,97217.59
2023-04-30T09:03:05.248Z,97209.53
2023-04-30T09:04:07.293Z,97216.00
2023-04-30T09:05:11.703Z,97217.19
2023-04-30T09:06:17.649Z,97217.56
2023-04-30T09:07:21.055Z,97215.53
2023-04-30T09:08:42.264Z,97216.72
2023-04-30T09:09:44.118Z,97215.03
2023-04-30T09:10:46.786Z,97217.88
2023-04-30T09:11:48.610Z,97220.53
2023-04-30T09:13:00.642Z,97218.50
2023-04-30T09:14:02.742Z,97218.28
2023-04-30T09:15:05.751Z,97218.69
2023-04-30T09:16:07.730Z,97217.22
2023-04-30T09:17:09.621Z,97210.72
2023-04-30T09:18:12.019Z,97213.72
2023-04-30T09:19:27.412Z,97214.53
2023-04-30T09:20:29.610Z,97215.69
2023-04-30T09:21:37.419Z,97209.22
2023-04-30T09:22:39.914Z,97211.19
2023-04-30T09:24:01.808Z,97213.03
2023-04-30T09:25:03.837Z,97213.38
2023-04-30T09:26:05.745Z,97210.31
2023-04-30T09:27:16.157Z,97203.03
2023-04-30T09:28:18.918Z,97205.88
2023-04-30T09:29:20.823Z,97199.81
2023-04-30T09:30:33.161Z,97206.66
2023-04-30T09:31:36.633Z,97202.75
2023-04-30T09:32:54.914Z,97202.31
2023-04-30T09:33:56.814Z,97202.91
2023-04-30T09:34:58.739Z,97203.91
2023-04-30T09:36:08.815Z,97200.69
2023-04-30T09:37:12.014Z,97201.75
2023-04-30T09:38:34.269Z,97191.56
2023-04-30T09:39:47.073Z,97198.66
2023-04-30T09:40:49.360Z,97199.63
2023-04-30T09:41:52.346Z,97200.59
2023-04-30T09:42:58.929Z,97198.75
2023-04-30T09:44:00.929Z,97195.47
2023-04-30T09:45:05.077Z,97195.47
2023-04-30T09:46:07.042Z,97198.69
2023-04-30T09:47:15.563Z,97199.94
2023-04-30T09:48:24.051Z,97201.97
2023-04-30T09:49:26.802Z,97201.19
2023-04-30T09:50:37.434Z,97201.59
2023-04-30T09:51:53.879Z,97196.13
2023-04-30T09:53:05.557Z,97194.88
2023-04-30T09:54:08.195Z,97195.84
2023-04-30T09:55:10.285Z,97200.63
2023-04-30T09:56:13.291Z,97196.78
2023-04-30T09:57:16.430Z,97197.16
2023-04-30T09:58:19.168Z,97194.88
2023-04-30T09:59:26.858Z,97192.03
2023-04-30T10:00:28.778Z,97197.16
2023-04-30T10:01:31.143Z,97191.66
2023-04-30T10:02:33.821Z,97192.81
2023-04-30T10:03:35.912Z,97197.63
2023-04-30T10:04:38.573Z,97190.34
2023-04-30T10:05:47.484Z,97195.72
2023-04-30T10:06:53.077Z,97188.88
2023-04-30T10:07:55.419Z,97196.28
2023-04-30T10:08:57.941Z,97197.44
2023-04-30T10:10:03.696Z,97189.34
2023-04-30T10:11:06.436Z,97194.69
2023-04-30T10:12:15.036Z,97187.19
2023-04-30T10:13:18.676Z,97186.94
2023-04-30T10:14:21.519Z,97188.56
2023-04-30T10:15:28.920Z,97188.56
2023-04-30T10:16:44.140Z,97181.47
2023-04-30T10:17:50.845Z,97186.50
2023-04-30T10:18:53.582Z,97185.25
2023-04-30T10:19:58.109Z,97187.66
2023-04-30T10:21:03.502Z,97184.00
2023-04-30T10:22:05.489Z,97187.66
2023-04-30T10:23:08.810Z,97187.66
2023-04-30T10:24:11.883Z,97187.66
2023-04-30T10:25:13.838Z,97184.56
2023-04-30T10:26:17.208Z,97185.00
2023-04-30T10:27:19.494Z,97179.31
2023-04-30T10:28:22.496Z,97181.84
2023-04-30T10:29:24.326Z,97183.47
2023-04-30T10:30:26.465Z,97185.19
2023-04-30T10:31:29.449Z,97189.66
2023-04-30T10:32:34.664Z,97184.06
2023-04-30T10:33:50.131Z,97186.53
2023-04-30T10:35:08.514Z,97182.44
2023-04-30T10:36:13.652Z,97178.47
2023-04-30T10:37:22.865Z,97179.41
2023-04-30T10:38:26.943Z,97177.78
2023-04-30T10:39:29.516Z,97176.63
2023-04-30T10:40:36.069Z,97174.78
2023-04-30T10:41:37.929Z,97177.06
2023-04-30T10:42:45.544Z,97179.16
2023-04-30T10:43:47.703Z,97170.09
2023-04-30T10:44:49.634Z,97166.34
2023-04-30T10:45:51.942Z,97164.63
2023-04-30T10:47:01.226Z,97166.09
2023-04-30T10:48:03.506Z,97158.56
2023-04-30T10:49:05.690Z,97159.59
2023-04-30T10:50:11.056Z,97159.03
2023-04-30T10:51:12.952Z,97157.88
2023-04-30T10:52:14.854Z,97163.03
2023-04-30T10:53:18.769Z,97155.91
2023-04-30T10:54:31.596Z,97154.91
2023-04-30T10:55:34.178Z,97158.34
2023-04-30T10:56:36.800Z,97155.34
2023-04-30T10:57:43.245Z,97157.59
2023-04-30T10:58:45.747Z,97153.94
2023-04-30T10:59:50.675Z,97150.28
2023-04-30T11:01:01.314Z,97161.28
2023-04-30T11:02:03.760Z,97150.28
2023-04-30T11:03:05.914Z,97152.28
2023-04-30T11:04:09.132Z,97147.25
2023-04-30T11:05:12.412Z,97145.69
2023-04-30T11:06:15.656Z,97147.53
2023-04-30T11:07:17.577Z,97147.75
2023-04-30T11:08:21.397Z,97148.34
2023-04-30T11:09:39.532Z,97152.94
2023-04-30T11:10:57.314Z,97150.53
2023-04-30T11:12:11.039Z,97148.06
2023-04-30T11:13:14.362Z,97144.25
2023-04-30T11:14:21.073Z,97151.50
2023-04-30T11:15:26.566Z,97142.91
2023-04-30T11:16:32.221Z,97146.22
2023-04-30T11:17:35.058Z,97155.75
2023-04-30T11:18:44.545Z,97147.38
2023-04-30T11:19:48.513Z,97153.72
2023-04-30T11:20:53.757Z,97146.19
2023-04-30T11:22:04.777Z,97151.41
2023-04-30T11:23:19.719Z,97142.84
2023-04-30T11:24:45.571Z,97150.44
2023-04-30T11:25:47.964Z,97143.47
2023-04-30T11:27:04.097Z,97149.19
2023-04-30T11:28:06.168Z,97141.78
2023-04-30T11:29:08.038Z,97143.03
2023-04-30T11:30:16.181Z,97143.19
2023-04-30T11:31:18.639Z,97145.59
2023-04-30T11:32:21.747Z,97138.69
2023-04-30T11:33:24.390Z,97143.53
2023-04-30T11:34:26.840Z,97134.56
2023-04-30T11:35:28.986Z,97135.13
2023-04-30T11:36:31.194Z,97131.94
2023-04-30T11:37:34.234Z,97132.75
2023-04-30T11:38:36.796Z,97136.97
2023-04-30T11:39:39.978Z,97137.75
2023-04-30T11:40:42.898Z,97139.38
2023-04-30T11:41:44.828Z,97133.06
2023-04-30T11:42:48.615Z,97136.50
2023-04-30T11:43:50.449Z,97139.16
2023-04-30T11:44:52.392Z,97131.13
2023-04-30T11:46:14.670Z,97129.28
2023-04-30T11:47:16.495Z,97130.91
2023-04-30T11:48:18.423Z,97131.84
2023-04-30T11:49:23.078Z,97127.03
2023-04-30T11:50:29.754Z,97128.38
2023-04-30T11:51:31.832Z,97127.22
2023-04-30T11:52:33.652Z,97125.84
2023-04-30T11:53:35.620Z,97130.97
2023-04-30T11:54:38.308Z,97126.97
2023-04-30T11:55:42.190Z,97133.84
2023-04-30T11:56:50.300Z,97127.59
2023-04-30T11:57:56.262Z,97130.91
2023-04-30T11:58:58.273Z,97128.94
2023-04-30T12:00:07.877Z,97128.06
2023-04-30T12:01:11.126Z,97121.97
2023-04-30T12:02:15.850Z,97123.97
2023-04-30T12:03:18.004Z,97125.72
2023-04-30T12:04:20.331Z,97129.72
2023-04-30T12:05:26.983Z,97127.13
2023-04-30T12:06:29.522Z,97116.56
2023-04-30T12:07:31.545Z,97116.03
2023-04-30T12:08:33.443Z,97111.53
2023-04-30T12:09:51.992Z,97112.91
2023-04-30T12:10:53.976Z,97103.13
2023-04-30T12:11:55.845Z,97105.84
2023-04-30T12:12:57.690Z,97113.34
2023-04-30T12:14:04.194Z,97104.59
2023-04-30T12:15:12.971Z,97104.38
2023-04-30T12:16:14.917Z,97106.66
2023-04-30T12:17:30.833Z,97106.97
2023-04-30T12:18:33.631Z,97106.72
2023-04-30T12:19:35.431Z,97108.25
2023-04-30T12:20:37.850Z,97104.97
2023-04-30T12:21:41.491Z,97107.84
2023-04-30T12:22:44.236Z,97102.16
2023-04-30T12:23:46.133Z,97100.00
2023-04-30T12:24:48.087Z,97106.50
2023-04-30T12:25:50.006Z,97106.28